Time;durP1;ratioP1;P1;durP2;ratioP2;P2;SDS_P1;SDS_P2;PMS_P1;PMS_P2;Temp;Humidity;BMP_temperature;BMP_pressure;BME280_temperature;BME280_humidity;BME280_pressure;Samples;Min_cycle;Max_cycle;Signal;HPM_P1;HPM_P2
2023/05/06 00:00:31;;;;;;;18.88;16.98;;;;;;;11.07;100.00;101425.28;4866885;28;20087;-70
2023/05/06 00:02:58;;;;;;;19.58;17.77;;;;;;;11.01;100.00;101419.38;4870006;28;20756;-71
2023/05/06 00:05:24;;;;;;;19.10;17.30;;;;;;;10.95;100.00;101416.03;4875428;28;20079;-71
2023/05/06 00:07:49;;;;;;;21.05;18.95;;;;;;;10.91;100.00;101414.44;4866962;28;20033;-70
2023/05/06 00:10:15;;;;;;;20.45;18.48;;;;;;;10.88;100.00;101411.91;4876523;28;20033;-69
2023/05/06 00:12:41;;;;;;;21.17;19.08;;;;;;;10.82;100.00;101412.16;4868698;29;20639;-70
2023/05/06 00:15:07;;;;;;;20.13;18.13;;;;;;;10.81;100.00;101405.09;4868733;28;20111;-70
2023/05/06 00:17:32;;;;;;;20.98;18.83;;;;;;;10.77;100.00;101403.50;4889604;28;20037;-70
2023/05/06 00:19:57;;;;;;;20.55;18.55;;;;;;;10.73;100.00;101407.22;4947635;28;20386;-71
2023/05/06 00:22:23;;;;;;;20.48;18.38;;;;;;;10.73;100.00;101412.56;4873241;28;20565;-71
2023/05/06 00:24:49;;;;;;;21.02;19.02;;;;;;;10.68;100.00;101415.41;4931312;28;20165;-71
2023/05/06 00:27:14;;;;;;;21.63;19.10;;;;;;;10.68;100.00;101412.75;4867104;28;20033;-71
2023/05/06 00:29:39;;;;;;;20.88;18.80;;;;;;;10.60;100.00;101406.00;4874938;28;20070;-71
2023/05/06 00:32:05;;;;;;;21.55;19.35;;;;;;;10.55;100.00;101398.22;4912354;28;20037;-71
2023/05/06 00:34:30;;;;;;;22.20;20.08;;;;;;;10.54;100.00;101407.16;4873714;28;20037;-71
2023/05/06 00:36:55;;;;;;;21.25;19.25;;;;;;;10.53;100.00;101409.84;4945592;28;20503;-71
2023/05/06 00:39:21;;;;;;;21.15;18.98;;;;;;;10.51;100.00;101407.28;4907525;28;20031;-71
2023/05/06 00:41:46;;;;;;;20.63;18.70;;;;;;;10.48;100.00;101408.25;4876900;28;20106;-71
2023/05/06 00:44:12;;;;;;;21.67;19.48;;;;;;;10.47;100.00;101401.19;4868334;28;20573;-71
2023/05/06 00:46:38;;;;;;;21.90;19.70;;;;;;;10.46;100.00;101410.13;4865842;28;20035;-71
2023/05/06 00:49:04;;;;;;;21.48;19.38;;;;;;;10.39;100.00;101403.31;4867909;28;20428;-71
2023/05/06 00:51:30;;;;;;;21.60;19.50;;;;;;;10.38;100.00;101401.59;4872352;28;20478;-71
2023/05/06 00:53:55;;;;;;;21.90;19.80;;;;;;;10.34;100.00;101399.97;4891319;28;20092;-71
2023/05/06 00:56:21;;;;;;;22.48;20.27;;;;;;;10.31;100.00;101405.41;4865371;28;20335;-71
2023/05/06 00:58:47;;;;;;;22.30;20.13;;;;;;;10.28;100.00;101394.03;4883283;28;20045;-71
2023/05/06 01:01:12;;;;;;;22.25;20.05;;;;;;;10.30;100.00;101397.50;4867273;28;20132;-71
2023/05/06 01:03:38;;;;;;;21.55;19.42;;;;;;;10.21;100.00;101398.72;4889064;28;20032;-69
2023/05/06 01:06:44;;;;;;;21.50;19.50;;;;;;;10.21;100.00;101391.59;4870593;28;20328;-69
2023/05/06 01:09:41;;;;;;;22.17;19.95;;;;;;;10.19;100.00;101398.75;4876908;28;20060;-72
2023/05/06 01:12:12;;;;;;;21.75;19.50;;;;;;;10.17;100.00;101402.44;4867615;28;20045;-70
2023/05/06 01:14:45;;;;;;;22.10;19.90;;;;;;;10.13;100.00;101398.16;4901815;28;20068;-70
2023/05/06 01:17:11;;;;;;;23.17;20.98;;;;;;;10.13;100.00;101392.84;4883842;28;20032;-70
2023/05/06 01:19:47;;;;;;;21.80;19.70;;;;;;;10.08;100.00;101384.19;4872875;28;20041;-70
2023/05/06 01:22:15;;;;;;;21.40;19.17;;;;;;;10.10;100.00;101395.63;4928070;28;20025;-70
2023/05/06 01:24:42;;;;;;;20.90;18.95;;;;;;;10.05;100.00;101390.50;4887593;28;20029;-70
2023/05/06 01:27:12;;;;;;;21.90;19.77;;;;;;;10.04;100.00;101390.56;4868689;28;20033;-70
2023/05/06 01:29:40;;;;;;;20.80;18.80;;;;;;;10.02;100.00;101385.28;4885032;28;20067;-70
2023/05/06 01:32:18;;;;;;;20.92;18.92;;;;;;;9.93;100.00;101385.66;4932476;28;20040;-70
2023/05/06 01:34:53;;;;;;;21.48;19.42;;;;;;;9.98;100.00;101396.97;4874917;28;20104;-70
2023/05/06 01:37:37;;;;;;;22.35;20.00;;;;;;;9.94;100.00;101396.22;4874734;28;20398;-70
2023/05/06 01:40:04;;;;;;;;;;;;;;;9.95;100.00;101390.00;4872553;28;20039;-70
2023/05/06 01:42:31;;;;;;;20.90;18.80;;;;;;;9.90;100.00;101391.09;4891512;28;19914;-70
2023/05/06 01:45:00;;;;;;;20.45;18.35;;;;;;;9.87;100.00;101389.44;4873148;28;20037;-71
2023/05/06 01:47:25;;;;;;;21.15;19.15;;;;;;;9.83;100.00;101390.47;4895641;28;20038;-71
2023/05/06 01:49:51;;;;;;;21.45;19.25;;;;;;;9.82;100.00;101387.84;4876231;28;20029;-71
2023/05/06 01:52:16;;;;;;;22.40;20.20;;;;;;;9.82;100.00;101390.50;4867944;28;20037;-71
2023/05/06 01:54:41;;;;;;;21.73;19.52;;;;;;;9.78;100.00;101392.44;4886619;28;20041;-71
2023/05/06 01:57:07;;;;;;;21.63;19.42;;;;;;;9.76;100.00;101398.75;4875918;28;20044;-71
2023/05/06 01:59:32;;;;;;;21.42;19.30;;;;;;;9.71;100.00;101402.44;4929177;28;20022;-70
2023/05/06 02:01:57;;;;;;;21.25;19.15;;;;;;;9.68;100.00;101399.91;4868486;28;20101;-70
2023/05/06 02:04:23;;;;;;;21.48;19.33;;;;;;;9.67;100.00;101392.00;4877392;28;20044;-70
2023/05/06 02:06:48;;;;;;;21.50;19.42;;;;;;;9.66;100.00;101409.72;4871696;28;20169;-70
2023/05/06 02:09:17;;;;;;;20.80;18.60;;;;;;;9.64;100.00;101400.06;4866991;28;20041;-71
2023/05/06 02:11:42;;;;;;;21.17;19.10;;;;;;;9.60;100.00;101401.13;4870023;28;20108;-71
2023/05/06 02:14:07;;;;;;;20.20;18.30;;;;;;;9.57;100.00;101402.13;4867037;28;20174;-71
2023/05/06 02:16:33;;;;;;;20.42;18.42;;;;;;;9.53;100.00;101402.25;4879373;28;20186;-71
2023/05/06 02:18:58;;;;;;;20.20;18.20;;;;;;;9.46;100.00;101405.16;4869464;28;20564;-72
2023/05/06 02:21:23;;;;;;;20.23;18.33;;;;;;;9.46;100.00;101410.47;4892878;28;20033;-72
2023/05/06 02:23:49;;;;;;;20.83;18.73;;;;;;;9.46;100.00;101409.63;4864098;28;20059;-72
2023/05/06 02:26:15;;;;;;;20.02;18.00;;;;;;;9.45;100.00;101415.84;4883671;28;20018;-71
2023/05/06 02:28:40;;;;;;;21.75;19.60;;;;;;;9.38;100.00;101407.22;4906546;28;20044;-71
2023/05/06 02:31:06;;;;;;;19.83;17.83;;;;;;;9.41;100.00;101416.91;4881308;28;20037;-71
2023/05/06 02:33:31;;;;;;;19.98;17.98;;;;;;;9.35;100.00;101404.69;4870535;28;20112;-70
2023/05/06 02:35:56;;;;;;;19.73;17.63;;;;;;;9.39;100.00;101416.06;4869086;28;20033;-70
2023/05/06 02:38:23;;;;;;;18.55;16.73;;;;;;;9.35;100.00;101407.34;4870339;28;20096;-70
2023/05/06 02:40:49;;;;;;;19.65;17.70;;;;;;;9.32;100.00;101401.25;4898285;28;20034;-70
2023/05/06 02:43:17;;;;;;;20.40;18.17;;;;;;;9.32;100.00;101401.25;4870689;28;20032;-70
2023/05/06 02:45:42;;;;;;;20.58;18.48;;;;;;;9.32;100.00;101412.78;4868418;29;20385;-71
2023/05/06 02:48:08;;;;;;;21.27;19.08;;;;;;;9.28;100.00;101400.53;4907978;28;20028;-71
2023/05/06 02:50:34;;;;;;;20.85;18.67;;;;;;;9.26;100.00;101401.50;4869426;28;20040;-70
2023/05/06 02:52:59;;;;;;;19.92;18.02;;;;;;;9.27;100.00;101395.25;4935592;28;20025;-71
2023/05/06 02:55:25;;;;;;;19.02;17.23;;;;;;;9.26;100.00;101402.38;4868684;28;20521;-71
2023/05/06 02:57:52;;;;;;;19.90;17.90;;;;;;;9.26;100.00;101406.81;4928194;28;20037;-70
2023/05/06 03:00:18;;;;;;;18.60;16.80;;;;;;;9.14;100.00;101397.50;4869634;28;20049;-70
2023/05/06 03:02:43;;;;;;;19.63;17.73;;;;;;;9.12;100.00;101397.56;4875144;28;20032;-71
2023/05/06 03:05:09;;;;;;;19.33;17.33;;;;;;;9.12;100.00;101396.69;4889747;28;20040;-70
2023/05/06 03:07:35;;;;;;;19.05;17.17;;;;;;;9.10;100.00;101406.50;4869391;29;20400;-71
2023/05/06 03:10:01;;;;;;;19.67;17.73;;;;;;;9.08;100.00;101403.03;4875504;28;20123;-71
2023/05/06 03:12:26;;;;;;;20.58;18.20;;;;;;;9.05;100.00;101409.31;4867561;28;20077;-70
2023/05/06 03:14:51;;;;;;;20.23;18.27;;;;;;;9.05;100.00;101405.81;4871817;28;20342;-71
2023/05/06 03:17:17;;;;;;;19.27;17.23;;;;;;;8.96;100.00;101397.25;4871894;28;20037;-71
2023/05/06 03:19:42;;;;;;;19.15;17.20;;;;;;;9.07;100.00;101388.00;4887436;28;20029;-71
2023/05/06 03:22:08;;;;;;;20.05;17.88;;;;;;;9.04;100.00;101399.63;4872626;28;20040;-71
2023/05/06 03:24:33;;;;;;;17.58;15.88;;;;;;;9.03;100.00;101395.25;4962468;28;20029;-71
2023/05/06 03:26:58;;;;;;;18.50;16.60;;;;;;;8.96;100.00;101401.69;4872673;28;20394;-71
2023/05/06 03:29:24;;;;;;;17.67;15.88;;;;;;;9.00;100.00;101391.81;4896532;28;20482;-71
2023/05/06 03:31:50;;;;;;;17.42;15.65;;;;;;;8.91;100.00;101391.22;4890486;28;20287;-70
2023/05/06 03:34:16;;;;;;;18.60;16.77;;;;;;;8.97;100.00;101403.41;4887825;28;20103;-71
2023/05/06 03:36:41;;;;;;;17.70;15.90;;;;;;;8.96;100.00;101397.25;4866860;28;20037;-70
2023/05/06 03:39:06;;;;;;;16.15;14.65;;;;;;;8.92;100.00;101386.78;4879610;28;20436;-71
2023/05/06 03:41:32;;;;;;;16.27;14.68;;;;;;;8.91;100.00;101395.69;4876741;28;20028;-71
2023/05/06 03:43:57;;;;;;;18.67;16.38;;;;;;;8.89;100.00;101381.56;4888633;28;20036;-71
2023/05/06 03:46:22;;;;;;;17.05;15.35;;;;;;;8.86;100.00;101385.22;4885507;28;20033;-70
2023/05/06 03:48:48;;;;;;;17.65;15.75;;;;;;;8.89;100.00;101389.53;4903817;28;20045;-70
2023/05/06 03:51:13;;;;;;;18.25;16.38;;;;;;;8.86;100.00;101386.97;4875604;28;20029;-71
2023/05/06 03:53:39;;;;;;;18.50;16.50;;;;;;;8.83;100.00;101384.47;4912368;28;20042;-70
2023/05/06 03:56:04;;;;;;;17.35;15.73;;;;;;;8.85;100.00;101393.22;4872171;28;20193;-70
2023/05/06 03:58:30;;;;;;;16.65;14.93;;;;;;;8.80;100.00;101393.38;4917971;28;20050;-70
2023/05/06 04:00:55;;;;;;;16.10;14.50;;;;;;;8.79;100.00;101388.13;4883128;28;20049;-69
2023/05/06 04:03:21;;;;;;;16.52;14.80;;;;;;;8.72;100.00;101391.00;4885301;28;20037;-70
2023/05/06 04:05:48;;;;;;;17.83;14.98;;;;;;;8.72;100.00;101391.00;4884635;28;20084;-71
2023/05/06 04:08:13;;;;;;;17.55;14.68;;;;;;;8.78;100.00;101394.34;4949372;28;20033;-71
2023/05/06 04:10:39;;;;;;;16.20;14.32;;;;;;;8.68;100.00;101385.84;4872723;28;20393;-72
2023/05/06 04:13:05;;;;;;;16.30;14.60;;;;;;;8.79;100.00;101401.41;4872247;28;20166;-71
2023/05/06 04:15:33;;;;;;;15.85;14.15;;;;;;;8.82;100.00;101402.19;4876456;28;20104;-71
2023/05/06 04:17:58;;;;;;;15.82;14.23;;;;;;;8.80;100.00;101398.69;4903299;28;20123;-71
2023/05/06 04:20:24;;;;;;;17.15;14.32;;;;;;;8.81;100.00;101399.56;4948019;28;20573;-71
2023/05/06 04:22:49;;;;;;;15.15;13.65;;;;;;;8.82;100.00;101402.19;4953887;28;20037;-71
2023/05/06 04:25:18;;;;;;;16.35;13.65;;;;;;;8.82;100.00;101402.19;4915863;28;20547;-71
2023/05/06 04:27:44;;;;;;;15.20;13.60;;;;;;;8.80;100.00;101404.00;4868672;28;20028;-70
2023/05/06 04:30:10;;;;;;;14.57;12.98;;;;;;;8.80;100.00;101411.97;4869078;29;20033;-70
2023/05/06 04:32:35;;;;;;;15.07;13.57;;;;;;;8.82;100.00;101415.44;4894904;28;20033;-71
2023/05/06 04:35:01;;;;;;;15.70;13.95;;;;;;;8.83;100.00;101413.66;4873370;28;20195;-71
2023/05/06 04:37:27;;;;;;;14.45;12.95;;;;;;;8.82;100.00;101412.78;4875997;28;20460;-71
2023/05/06 04:39:53;;;;;;;14.05;12.68;;;;;;;8.85;100.00;101410.00;4908180;28;20128;-71
2023/05/06 04:42:18;;;;;;;14.77;13.30;;;;;;;8.86;100.00;101410.88;4914844;28;20045;-72
2023/05/06 04:44:44;;;;;;;14.27;12.80;;;;;;;8.87;100.00;101409.97;4862562;28;20032;-71
2023/05/06 04:47:10;;;;;;;13.88;12.43;;;;;;;8.85;100.00;101406.50;4866423;28;21405;-72
2023/05/06 04:49:35;;;;;;;14.80;13.30;;;;;;;8.88;100.00;101414.34;4865704;28;20230;-71
2023/05/06 04:52:00;;;;;;;14.32;12.73;;;;;;;8.89;100.00;101419.59;4877031;28;20066;-72
2023/05/06 04:54:26;;;;;;;14.80;13.25;;;;;;;8.91;100.00;101415.13;4859580;28;20033;-71
2023/05/06 04:56:52;;;;;;;15.82;13.75;;;;;;;8.95;100.00;101421.19;4867820;28;20041;-71
2023/05/06 04:59:17;;;;;;;15.68;14.05;;;;;;;8.98;100.00;101423.72;4860040;28;20059;-70
2023/05/06 05:01:43;;;;;;;17.08;14.32;;;;;;;9.08;100.00;101430.47;4863982;28;20767;-71
2023/05/06 05:04:08;;;;;;;17.35;14.77;;;;;;;9.15;100.00;101429.31;4863801;28;20123;-71
2023/05/06 05:06:33;;;;;;;15.40;13.77;;;;;;;9.27;100.00;101437.75;4905576;28;20283;-71
2023/05/06 05:08:59;;;;;;;15.27;13.70;;;;;;;9.38;100.00;101436.47;4895126;28;20080;-70
2023/05/06 05:11:24;;;;;;;16.08;13.40;;;;;;;9.48;100.00;101436.97;4914421;28;20489;-71
2023/05/06 05:13:50;;;;;;;15.00;13.07;;;;;;;9.55;100.00;101440.28;4867501;28;21143;-71
2023/05/06 05:16:15;;;;;;;14.73;13.23;;;;;;;9.65;100.00;101441.66;4879329;28;20247;-70
2023/05/06 05:18:41;;;;;;;13.77;12.45;;;;;;;9.73;100.00;101444.91;4883057;28;20528;-71
2023/05/06 05:21:06;;;;;;;13.82;12.23;;;;;;;9.82;100.00;101454.31;4887947;28;20052;-71
2023/05/06 05:23:31;;;;;;;15.73;12.75;;;;;;;9.90;100.00;101452.25;4878613;28;20059;-71
2023/05/06 05:25:57;;;;;;;13.10;11.70;;;;;;;10.02;100.00;101450.91;4877905;28;20029;-70
2023/05/06 05:28:22;;;;;;;13.15;11.85;;;;;;;10.13;100.00;101452.22;4867043;28;20029;-70
2023/05/06 05:30:47;;;;;;;13.18;11.77;;;;;;;10.20;100.00;101447.53;4869713;28;20366;-69
2023/05/06 05:33:13;;;;;;;13.15;11.55;;;;;;;10.34;100.00;101453.19;4868101;28;20436;-71
2023/05/06 05:35:38;;;;;;;13.05;11.55;;;;;;;10.50;100.00;101457.91;4890406;28;20019;-70
2023/05/06 05:38:03;;;;;;;13.30;10.73;;;;;;;10.62;100.00;101458.28;4884502;28;20033;-70
2023/05/06 05:40:29;;;;;;;13.63;10.70;;;;;;;10.79;100.00;101462.91;4875579;28;20029;-71
2023/05/06 05:42:54;;;;;;;12.07;10.88;;;;;;;10.91;100.00;101465.06;4867398;28;20021;-70
2023/05/06 05:45:20;;;;;;;14.13;11.55;;;;;;;11.14;100.00;101468.50;4870914;28;20037;-71
2023/05/06 05:47:45;;;;;;;11.20;9.95;;;;;;;11.24;100.00;101475.16;4867396;28;20033;-71
2023/05/06 05:50:11;;;;;;;12.65;10.45;;;;;;;11.29;100.00;101459.88;4867177;28;20461;-71
2023/05/06 05:52:36;;;;;;;11.32;10.13;;;;;;;11.35;100.00;101464.91;4870929;28;20157;-70
2023/05/06 05:55:01;;;;;;;11.85;10.70;;;;;;;11.44;100.00;101476.97;4868103;28;20056;-70
2023/05/06 05:57:27;;;;;;;11.75;10.10;;;;;;;11.44;100.00;101456.50;4878212;28;20033;-70
2023/05/06 05:59:52;;;;;;;11.10;9.73;;;;;;;11.48;100.00;101460.75;4949795;28;20124;-70
2023/05/06 06:02:18;;;;;;;12.13;10.45;;;;;;;11.51;100.00;101458.91;4927144;28;20290;-70
2023/05/06 06:04:43;;;;;;;11.57;10.18;;;;;;;11.56;100.00;101456.88;4878942;28;20136;-71
2023/05/06 06:07:08;;;;;;;11.65;9.90;;;;;;;11.63;100.00;101458.34;4931984;28;20518;-71
2023/05/06 06:09:34;;;;;;;9.70;8.70;;;;;;;11.64;100.00;101465.41;4898589;28;20041;-71
2023/05/06 06:12:00;;;;;;;10.68;9.40;;;;;;;11.65;100.00;101459.13;4883996;28;20029;-71
2023/05/06 06:14:26;;;;;;;10.57;9.15;;;;;;;11.60;100.00;101459.34;4870100;28;20120;-71
2023/05/06 06:16:51;;;;;;;12.93;10.10;;;;;;;11.63;100.00;101459.22;4891972;28;20127;-71
2023/05/06 06:19:17;;;;;;;10.73;9.63;;;;;;;11.62;100.00;101460.16;4872732;28;20517;-71
2023/05/06 06:21:42;;;;;;;10.82;9.50;;;;;;;11.69;100.00;101458.06;4893619;28;20031;-71
2023/05/06 06:24:08;;;;;;;10.30;9.20;;;;;;;11.76;100.00;101462.19;4903710;28;20037;-71
2023/05/06 06:26:33;;;;;;;10.73;8.77;;;;;;;11.68;100.00;101459.88;4895615;28;20033;-71
2023/05/06 06:28:58;;;;;;;10.52;9.10;;;;;;;11.62;100.00;101460.16;4883145;28;20037;-70
2023/05/06 06:31:24;;;;;;;11.60;9.50;;;;;;;11.59;100.00;101462.97;4891868;28;20026;-72
2023/05/06 06:33:49;;;;;;;11.98;9.90;;;;;;;11.72;100.00;101469.47;4885480;28;20076;-71
2023/05/06 06:36:14;;;;;;;12.68;9.32;;;;;;;12.06;100.00;101462.59;4901302;28;20039;-70
2023/05/06 06:38:40;;;;;;;10.73;9.63;;;;;;;12.42;100.00;101467.97;4934768;28;20043;-70
2023/05/06 06:41:06;;;;;;;11.45;9.68;;;;;;;12.70;100.00;101470.13;4905226;28;20029;-70
2023/05/06 06:43:32;;;;;;;9.88;8.70;;;;;;;13.01;100.00;101473.09;4868618;28;20249;-69
2023/05/06 06:45:57;;;;;;;10.38;8.73;;;;;;;13.28;100.00;101474.34;4932288;28;20309;-71
2023/05/06 06:48:22;;;;;;;11.02;8.80;;;;;;;13.41;100.00;101471.91;4868793;28;20021;-71
2023/05/06 06:50:48;;;;;;;12.23;9.40;;;;;;;13.58;100.00;101465.66;4880923;28;20033;-71
2023/05/06 06:53:13;;;;;;;11.75;9.07;;;;;;;13.82;100.00;101467.00;4867425;29;20457;-70
2023/05/06 06:55:42;;;;;;;8.45;7.57;;;;;;;14.08;100.00;101472.75;4868594;28;20060;-69
2023/05/06 06:58:07;;;;;;;9.55;7.32;;;;;;;14.40;100.00;101470.94;4879149;28;20033;-70
2023/05/06 07:00:32;;;;;;;7.57;6.60;;;;;;;14.73;100.00;101470.84;4868951;28;20107;-70
2023/05/06 07:02:58;;;;;;;8.68;7.25;;;;;;;15.00;100.00;101468.34;4869415;28;20025;-71
2023/05/06 07:05:25;;;;;;;7.43;6.40;;;;;;;15.08;95.41;101471.44;4867670;29;20045;-70
2023/05/06 07:07:51;;;;;;;7.35;6.30;;;;;;;15.10;96.49;101476.72;4947757;28;20021;-69
2023/05/06 07:10:19;;;;;;;7.75;6.20;;;;;;;15.23;96.14;101469.66;4870977;28;20059;-70
2023/05/06 07:12:45;;;;;;;11.05;7.18;;;;;;;15.43;94.42;101482.75;4870026;28;20021;-70
2023/05/06 07:15:10;;;;;;;7.30;6.55;;;;;;;15.91;94.81;101475.31;4880253;28;20425;-70
2023/05/06 07:17:36;;;;;;;7.75;6.22;;;;;;;16.40;91.09;101476.66;4881373;28;20324;-70
2023/05/06 07:20:01;;;;;;;7.47;5.60;;;;;;;16.88;88.13;101485.16;4954579;28;20396;-70
2023/05/06 07:22:27;;;;;;;8.93;7.90;;;;;;;17.21;83.13;101486.53;4894168;28;20041;-71
2023/05/06 07:24:53;;;;;;;8.15;6.22;;;;;;;17.33;83.14;101480.31;4886616;28;20048;-71
2023/05/06 07:27:18;;;;;;;7.07;6.07;;;;;;;17.56;81.66;101486.81;4906991;28;20488;-71
2023/05/06 07:29:43;;;;;;;7.85;6.20;;;;;;;17.74;83.34;101488.22;4877437;28;20029;-70
2023/05/06 07:32:09;;;;;;;9.05;6.47;;;;;;;17.88;79.75;101488.09;4913854;28;20116;-70
2023/05/06 07:34:35;;;;;;;8.30;6.20;;;;;;;18.05;78.98;101483.31;4868166;28;20107;-70
2023/05/06 07:37:00;;;;;;;7.25;6.30;;;;;;;18.21;76.38;101483.94;4870686;28;20033;-70
2023/05/06 07:39:26;;;;;;;8.18;6.50;;;;;;;18.52;73.98;101481.66;4869897;28;20033;-71
2023/05/06 07:41:51;;;;;;;7.85;5.97;;;;;;;18.72;73.84;101491.00;4867378;28;20033;-71
2023/05/06 07:44:17;;;;;;;7.82;5.95;;;;;;;19.07;74.26;101496.47;4943501;28;20442;-72
2023/05/06 07:46:43;;;;;;;11.27;8.75;;;;;;;19.51;72.07;101494.84;4869963;28;20116;-72
2023/05/06 07:49:08;;;;;;;7.13;5.93;;;;;;;19.78;68.70;101491.88;4911496;28;20027;-72
2023/05/06 07:51:34;;;;;;;8.18;6.20;;;;;;;20.25;70.23;101490.72;4891742;28;20068;-71
2023/05/06 07:53:59;;;;;;;8.25;7.18;;;;;;;20.69;66.20;101488.06;4867470;29;20093;-71
2023/05/06 07:56:25;;;;;;;7.20;6.38;;;;;;;21.23;67.95;101492.50;4868414;28;20071;-71
2023/05/06 07:58:50;;;;;;;7.25;6.10;;;;;;;21.51;62.45;101489.19;4932869;28;20023;-71
2023/05/06 08:01:15;;;;;;;8.52;6.35;;;;;;;21.49;64.27;101490.31;4894035;28;20504;-71
2023/05/06 08:03:41;;;;;;;7.97;6.13;;;;;;;21.83;62.53;101489.09;4869742;28;20515;-71
2023/05/06 08:06:06;;;;;;;6.45;5.47;;;;;;;22.42;62.78;101489.31;4867960;29;20346;-71
2023/05/06 08:08:32;;;;;;;7.28;5.40;;;;;;;22.80;62.08;101489.38;4947146;28;20036;-72
2023/05/06 08:10:58;;;;;;;6.85;5.88;;;;;;;23.17;56.90;101491.41;4872903;28;20218;-72
2023/05/06 08:13:24;;;;;;;7.32;5.57;;;;;;;23.15;55.26;101496.13;4894229;28;20034;-71
2023/05/06 08:15:50;;;;;;;9.75;5.82;;;;;;;23.23;58.02;101501.69;4946260;28;20025;-71
2023/05/06 08:18:16;;;;;;;6.78;5.40;;;;;;;23.42;55.91;101506.25;4883345;28;20020;-70
2023/05/06 08:20:41;;;;;;;5.60;4.30;;;;;;;23.47;53.70;101500.38;4868624;28;20433;-72
2023/05/06 08:23:06;;;;;;;5.07;4.13;;;;;;;23.61;54.78;101499.91;4865589;28;20045;-71
2023/05/06 08:25:32;;;;;;;5.07;4.18;;;;;;;23.90;55.93;101501.72;4883325;28;20084;-71
2023/05/06 08:27:57;;;;;;;4.28;3.60;;;;;;;24.11;52.57;101494.16;4870902;28;20051;-72
2023/05/06 08:30:23;;;;;;;5.13;3.80;;;;;;;24.35;52.14;101483.59;4944059;28;20049;-72
2023/05/06 08:32:48;;;;;;;5.38;4.38;;;;;;;24.72;51.16;101490.84;4937260;28;20030;-72
2023/05/06 08:35:13;;;;;;;4.85;3.67;;;;;;;24.62;49.58;101491.91;4879553;28;20049;-72
2023/05/06 08:37:42;;;;;;;6.55;3.60;;;;;;;24.67;51.90;101487.72;4868001;28;20064;-71
2023/05/06 08:40:21;;;;;;;3.38;3.08;;;;;;;25.26;53.17;101483.53;4870162;28;20378;-71
2023/05/06 08:42:48;;;;;;;3.08;2.78;;;;;;;25.86;47.57;101495.53;4869116;28;20033;-71
2023/05/06 08:45:18;;;;;;;5.68;3.13;;;;;;;26.34;46.81;101489.47;4880693;28;20078;-72
2023/05/06 08:47:43;;;;;;;3.10;2.70;;;;;;;26.93;44.43;101484.84;4874058;28;20071;-71
2023/05/06 08:50:11;;;;;;;4.25;2.85;;;;;;;27.22;45.03;101487.09;4867595;28;20139;-71
2023/05/06 08:52:38;;;;;;;5.07;2.95;;;;;;;27.62;42.92;101481.72;4866734;29;20056;-71
2023/05/06 08:55:04;;;;;;;2.97;2.40;;;;;;;28.23;40.48;101469.25;4885477;28;20049;-72
2023/05/06 08:57:33;;;;;;;3.00;2.45;;;;;;;28.37;38.99;101473.13;4878561;28;20558;-71
2023/05/06 08:59:58;;;;;;;4.38;2.60;;;;;;;28.57;41.62;101477.13;4884446;28;20017;-72
2023/05/06 09:02:24;;;;;;;3.53;2.05;;;;;;;28.39;38.56;101476.56;4893003;28;20029;-71
2023/05/06 09:04:51;;;;;;;3.30;1.80;;;;;;;28.28;37.51;101481.38;4866621;29;20493;-71
2023/05/06 09:07:20;;;;;;;4.45;2.30;;;;;;;27.98;38.63;101487.66;4932116;28;20206;-71
2023/05/06 09:09:45;;;;;;;4.20;2.28;;;;;;;28.35;38.04;101472.44;4868330;28;20084;-71
2023/05/06 09:12:12;;;;;;;4.32;2.38;;;;;;;28.95;37.52;101463.50;4867283;28;20057;-71
2023/05/06 09:14:37;;;;;;;2.88;2.17;;;;;;;29.67;35.31;101476.78;4887719;28;20600;-71
2023/05/06 09:17:03;;;;;;;2.15;1.80;;;;;;;30.02;34.06;101475.19;4948502;28;20058;-70
2023/05/06 09:19:28;;;;;;;4.15;1.58;;;;;;;30.30;34.55;101469.00;4881723;28;20438;-72
2023/05/06 09:21:54;;;;;;;2.47;1.80;;;;;;;29.98;35.12;101471.97;4869730;28;20025;-72
2023/05/06 09:24:20;;;;;;;2.35;1.70;;;;;;;29.44;34.10;101474.94;4867459;28;20033;-72
2023/05/06 09:26:45;;;;;;;3.25;1.90;;;;;;;29.28;34.92;101484.16;4891629;28;20033;-71
2023/05/06 09:29:11;;;;;;;3.17;1.90;;;;;;;29.42;34.68;101474.25;4885643;28;20025;-71
2023/05/06 09:31:42;;;;;;;3.00;1.83;;;;;;;29.81;35.67;101475.94;4881645;28;20070;-71
2023/05/06 09:34:07;;;;;;;3.53;2.08;;;;;;;30.33;32.94;101474.97;4873916;28;20083;-71
2023/05/06 09:36:33;;;;;;;3.92;2.20;;;;;;;30.44;32.95;101463.47;4937899;28;20452;-71
2023/05/06 09:38:58;;;;;;;3.10;2.15;;;;;;;30.98;33.68;101475.91;4908092;28;20037;-72
2023/05/06 09:41:24;;;;;;;3.17;2.30;;;;;;;31.34;32.31;101475.81;4904049;28;20022;-72
2023/05/06 09:43:53;;;;;;;2.72;2.08;;;;;;;31.68;31.28;101480.50;4874813;28;20035;-71
2023/05/06 09:46:23;;;;;;;3.42;2.58;;;;;;;31.57;31.32;101474.75;4923216;28;20064;-72
2023/05/06 09:48:54;;;;;;;3.45;1.98;;;;;;;31.75;31.43;101467.66;4890010;28;20041;-71
2023/05/06 09:51:20;;;;;;;4.25;2.30;;;;;;;32.28;29.45;101461.59;4909232;28;20044;-71
2023/05/06 09:53:45;;;;;;;2.72;2.13;;;;;;;32.65;29.27;101460.25;4866154;28;20059;-72
2023/05/06 09:56:12;;;;;;;3.55;2.15;;;;;;;33.12;29.58;101457.56;4963461;28;20258;-72
2023/05/06 09:58:38;;;;;;;3.95;2.38;;;;;;;33.11;29.70;101455.84;4869942;28;20270;-71
2023/05/06 10:01:06;;;;;;;3.10;1.77;;;;;;;33.40;28.87;101460.09;4872386;28;20053;-71
2023/05/06 10:03:32;;;;;;;2.45;1.85;;;;;;;33.73;28.59;101457.28;4865130;28;20095;-72
2023/05/06 10:06:03;;;;;;;4.18;2.22;;;;;;;32.92;28.65;101463.91;4868030;28;20037;-72
2023/05/06 10:08:34;;;;;;;4.90;1.98;;;;;;;32.44;29.34;101464.00;4865394;29;20029;-72
2023/05/06 10:11:01;;;;;;;2.78;1.63;;;;;;;32.51;28.82;101454.91;4866263;28;20124;-71
2023/05/06 10:13:26;;;;;;;2.75;2.25;;;;;;;32.31;28.19;101461.16;4877779;28;20099;-72
2023/05/06 10:15:52;;;;;;;3.63;1.80;;;;;;;31.71;30.40;101455.34;4886824;28;20049;-72
2023/05/06 10:18:23;;;;;;;3.05;1.83;;;;;;;30.84;32.30;101454.81;4929738;28;20088;-71
2023/05/06 10:20:52;;;;;;;3.42;1.98;;;;;;;30.86;31.50;101452.75;4916592;28;20029;-72
2023/05/06 10:23:24;;;;;;;2.58;1.88;;;;;;;30.35;33.36;101450.91;4876096;28;20037;-70
2023/05/06 10:25:55;;;;;;;3.33;2.15;;;;;;;29.81;33.24;101451.25;4873570;28;20043;-71
2023/05/06 10:28:21;;;;;;;4.88;2.13;;;;;;;28.84;33.70;101447.50;4959411;28;20054;-72
2023/05/06 10:30:47;;;;;;;4.60;2.22;;;;;;;28.34;34.98;101441.47;4929929;28;20032;-71
2023/05/06 10:33:14;;;;;;;3.75;2.00;;;;;;;28.00;34.60;101439.06;4889991;28;20081;-71
2023/05/06 10:35:39;;;;;;;2.50;1.80;;;;;;;27.45;36.55;101448.09;4864499;28;20040;-72
2023/05/06 10:38:11;;;;;;;3.70;2.20;;;;;;;26.85;36.93;101453.94;4864461;29;20544;-71
2023/05/06 10:40:37;;;;;;;3.45;2.00;;;;;;;26.62;39.45;101432.72;4868529;29;20066;-71
2023/05/06 10:43:23;;;;;;;3.92;1.80;;;;;;;25.95;38.91;101435.41;4866820;28;20064;-72
2023/05/06 10:46:04;;;;;;;3.90;1.80;;;;;;;24.93;40.44;101437.94;4867764;28;20173;-71
2023/05/06 10:48:30;;;;;;;3.55;1.83;;;;;;;24.49;42.13;101429.69;4883940;28;20032;-70
2023/05/06 10:51:14;;;;;;;2.30;2.00;;;;;;;24.49;43.12;101427.81;4868687;28;20098;-71
2023/05/06 10:53:54;;;;;;;2.95;2.08;;;;;;;25.02;42.81;101426.94;4867268;28;20076;-71
2023/05/06 10:56:20;;;;;;;2.30;1.80;;;;;;;26.10;40.62;101423.88;4867698;28;20063;-72
2023/05/06 10:58:50;;;;;;;2.70;1.50;;;;;;;26.48;40.62;101423.31;4948340;28;20559;-72
2023/05/06 11:01:19;;;;;;;3.85;1.55;;;;;;;28.25;37.18;101415.16;4864608;28;20540;-72
2023/05/06 11:03:45;;;;;;;2.78;1.30;;;;;;;30.11;32.23;101405.41;4879798;28;20034;-73
2023/05/06 11:06:10;;;;;;;2.22;1.40;;;;;;;31.06;29.97;101411.66;4866608;28;20052;-72
2023/05/06 11:08:36;;;;;;;2.97;1.50;;;;;;;31.20;30.23;101411.59;4882974;28;20401;-72
2023/05/06 11:11:40;;;;;;;3.38;2.00;;;;;;;31.09;31.98;101422.28;4927038;28;20120;-72